Louisiana State University, Louisiana
Current Conditions -  °F | °C
As of 12:53 AM on Thursday 27 Nov 2014 (Local Time) from KBTR Reporting Station
Clear Clear  
Wind Chill: 47°   Ceiling: Unl
Heat Index: 49°   Visibility: 10mi
Dew Point: 43°   Wind: 6mph
Humidity: 80%   Direction: 270°W
Pressure: 30.3"   Gusts: NA
Location:  30.4089°N, 91.1938°W
Report Text: KBTR 270653Z AUTO 27005KT 10SM CLR 09/06 A3030 RMK AO2 SLP260 T00940061 TSNO
Loading
Personal Weather Stations






























Interactive Weather Map New forecast layout! Learn more

10-Day Weather Forecast

Advertisements
Track Severe Weather on mobile